Time;durP1;ratioP1;P1;durP2;ratioP2;P2;SDS_P1;SDS_P2;PMS_P1;PMS_P2;Temp;Humidity;BMP_temperature;BMP_pressure;BME280_temperature;BME280_humidity;BME280_pressure;Samples;Min_cycle;Max_cycle;Signal;HPM_P1;HPM_P2
2022/09/14 00:00:12;;;;;;;0.50;0.50;;;16.60;99.90;;;;;;6087673;23;20022;-77
2022/09/14 00:02:39;;;;;;;0.52;0.52;;;16.60;99.90;;;;;;6058861;23;20026;-77
2022/09/14 00:05:06;;;;;;;0.30;0.30;;;16.60;99.90;;;;;;6059091;23;20077;-76
2022/09/14 00:07:33;;;;;;;0.50;0.50;;;16.70;99.90;;;;;;6082689;23;20022;-77
2022/09/14 00:10:00;;;;;;;0.75;0.55;;;16.70;99.90;;;;;;6083510;23;20018;-77
2022/09/14 00:12:27;;;;;;;0.45;0.40;;;16.70;99.90;;;;;;6107289;23;20093;-77
2022/09/14 00:14:54;;;;;;;0.75;0.52;;;16.70;99.90;;;;;;6059004;23;20022;-77
2022/09/14 00:17:20;;;;;;;0.60;0.43;;;16.70;99.90;;;;;;6082457;23;20105;-77
2022/09/14 00:19:47;;;;;;;0.60;0.50;;;16.70;99.90;;;;;;6058988;23;20034;-76
2022/09/14 00:22:14;;;;;;;0.55;0.50;;;16.70;99.90;;;;;;6082700;23;20022;-77
2022/09/14 00:24:41;;;;;;;0.40;0.40;;;16.70;99.90;;;;;;6082879;23;20033;-78
2022/09/14 00:27:09;;;;;;;0.70;0.50;;;16.70;99.90;;;;;;6086854;23;20097;-77
2022/09/14 00:29:35;;;;;;;0.30;0.30;;;16.70;99.90;;;;;;6063091;23;20105;-77
2022/09/14 00:32:02;;;;;;;0.40;0.40;;;16.70;99.90;;;;;;6086152;23;20127;-77
2022/09/14 00:34:29;;;;;;;0.57;0.57;;;16.70;99.90;;;;;;6062128;23;20062;-77
2022/09/14 00:36:56;;;;;;;0.98;0.43;;;16.70;99.90;;;;;;6086392;23;20025;-77
2022/09/14 00:39:23;;;;;;;0.40;0.40;;;16.70;99.90;;;;;;6086948;23;20023;-77
2022/09/14 00:41:50;;;;;;;0.30;0.30;;;16.70;99.90;;;;;;6062827;23;20094;-76
2022/09/14 00:44:17;;;;;;;0.65;0.30;;;16.70;99.90;;;;;;6086870;23;20026;-77
2022/09/14 00:46:45;;;;;;;0.50;0.50;;;16.70;99.90;;;;;;6087109;23;20446;-77
2022/09/14 00:49:18;;;;;;;2.17;0.45;;;16.70;99.90;;;;;;6085973;23;20057;-76
2022/09/14 00:51:55;;;;;;;0.40;0.40;;;16.60;99.90;;;;;;6085696;23;20029;-77
2022/09/14 00:54:21;;;;;;;0.30;0.30;;;16.60;99.90;;;;;;6085710;23;20395;-77
2022/09/14 00:56:48;;;;;;;0.80;0.40;;;16.60;99.90;;;;;;6086720;23;20030;-77
2022/09/14 00:59:21;;;;;;;0.40;0.40;;;16.60;99.90;;;;;;6063066;23;20026;-77
2022/09/14 01:01:48;;;;;;;0.50;0.50;;;16.60;99.90;;;;;;6084033;23;20055;-77
2022/09/14 01:04:16;;;;;;;0.30;0.30;;;16.60;99.90;;;;;;6082223;23;20136;-77
2022/09/14 01:07:19;;;;;;;0.43;0.43;;;16.60;99.90;;;;;;6082232;23;20377;-77
2022/09/14 01:10:05;;;;;;;0.30;0.30;;;16.60;99.90;;;;;;6053340;23;20022;-78
2022/09/14 01:12:46;;;;;;;0.47;0.47;;;16.60;99.90;;;;;;6086748;23;20402;-77
2022/09/14 01:15:44;;;;;;;0.30;0.30;;;16.60;99.90;;;;;;6086701;23;20392;-77
2022/09/14 01:18:50;;;;;;;0.40;0.40;;;16.60;99.90;;;;;;6061687;23;20481;-77
2022/09/14 01:21:33;;;;;;;0.50;0.40;;;16.60;99.90;;;;;;6087523;23;20077;-77
2022/09/14 01:24:11;;;;;;;0.57;0.57;;;16.60;99.90;;;;;;6062494;23;20045;-76
2022/09/14 01:26:45;;;;;;;0.43;0.43;;;16.60;99.90;;;;;;6086337;23;20026;-76
2022/09/14 01:29:25;;;;;;;0.32;0.32;;;16.50;99.90;;;;;;6086536;23;20520;-77
2022/09/14 01:32:13;;;;;;;0.40;0.40;;;16.50;99.90;;;;;;6063536;23;20410;-76
2022/09/14 01:34:44;;;;;;;0.40;0.40;;;16.50;99.90;;;;;;6083728;23;20026;-77
2022/09/14 01:37:33;;;;;;;0.52;0.52;;;16.50;99.90;;;;;;6084048;23;20062;-75
2022/09/14 01:40:17;;;;;;;0.57;0.40;;;16.50;99.90;;;;;;6065568;23;20026;-76
2022/09/14 01:42:45;;;;;;;0.50;0.50;;;16.50;99.90;;;;;;6088821;23;20033;-75
2022/09/14 01:45:13;;;;;;;2.03;0.70;;;16.50;99.90;;;;;;6087125;23;20022;-77
2022/09/14 01:47:45;;;;;;;0.40;0.40;;;16.50;99.90;;;;;;6087824;23;20029;-76
2022/09/14 01:50:16;;;;;;;0.50;0.50;;;16.50;99.90;;;;;;6087013;23;20033;-76
2022/09/14 01:52:45;;;;;;;0.98;0.80;;;16.50;99.90;;;;;;6086777;23;20367;-76
2022/09/14 01:55:19;;;;;;;0.70;0.70;;;16.50;99.90;;;;;;6062557;23;20628;-76
2022/09/14 01:57:52;;;;;;;0.60;0.60;;;16.40;99.90;;;;;;6086777;23;20025;-76
2022/09/14 02:00:19;;;;;;;0.60;0.60;;;16.40;99.90;;;;;;6062296;23;20054;-76
2022/09/14 02:02:48;;;;;;;1.63;0.63;;;16.50;99.90;;;;;;6086694;23;20527;-76
2022/09/14 02:05:28;;;;;;;0.60;0.60;;;16.40;99.90;;;;;;6085307;23;20045;-77
2022/09/14 02:07:55;;;;;;;0.68;0.57;;;16.40;99.90;;;;;;6086747;23;20053;-76
2022/09/14 02:10:23;;;;;;;0.88;0.63;;;16.40;99.90;;;;;;6063228;23;20049;-77
2022/09/14 02:12:51;;;;;;;1.27;0.68;;;16.40;99.90;;;;;;6063231;23;20097;-77
2022/09/14 02:15:17;;;;;;;0.52;0.52;;;16.40;99.90;;;;;;6061972;23;20027;-77
2022/09/14 02:17:44;;;;;;;0.68;0.68;;;16.40;99.90;;;;;;6086690;23;20052;-78
2022/09/14 02:20:19;;;;;;;0.50;0.50;;;16.40;99.90;;;;;;6062346;23;20269;-77
2022/09/14 02:22:48;;;;;;;0.52;0.52;;;16.40;99.90;;;;;;6062856;23;20021;-78
2022/09/14 02:25:15;;;;;;;0.88;0.75;;;16.40;99.90;;;;;;6086743;23;20023;-78
2022/09/14 02:27:42;;;;;;;0.73;0.70;;;16.40;99.90;;;;;;6063223;23;20018;-77
2022/09/14 02:30:09;;;;;;;0.60;0.60;;;16.40;99.90;;;;;;6063891;23;20026;-77
2022/09/14 02:32:41;;;;;;;1.40;0.90;;;16.40;99.90;;;;;;6088084;23;20082;-77
2022/09/14 02:35:32;;;;;;;0.82;0.82;;;16.40;99.90;;;;;;6088433;23;20057;-77
2022/09/14 02:38:50;;;;;;;1.35;1.00;;;16.40;99.90;;;;;;6089812;23;20030;-77
2022/09/14 02:41:38;;;;;;;1.30;0.90;;;16.40;99.90;;;;;;6085195;23;20019;-77
2022/09/14 02:44:14;;;;;;;0.85;0.70;;;16.40;99.90;;;;;;6088824;23;20102;-77
2022/09/14 02:47:00;;;;;;;0.90;0.75;;;16.40;99.90;;;;;;6087751;23;20101;-77
2022/09/14 02:49:43;;;;;;;0.70;0.70;;;16.30;99.90;;;;;;6064707;23;20026;-77
2022/09/14 02:52:15;;;;;;;0.60;0.60;;;16.30;99.90;;;;;;6064217;23;20023;-77
2022/09/14 02:55:04;;;;;;;0.65;0.65;;;16.30;99.90;;;;;;6064676;23;20033;-77
2022/09/14 02:57:30;;;;;;;0.60;0.60;;;16.30;99.90;;;;;;6088522;23;20029;-77
2022/09/14 02:59:57;;;;;;;0.57;0.50;;;16.30;99.90;;;;;;6088621;23;20027;-77
2022/09/14 03:02:24;;;;;;;0.70;0.70;;;16.30;99.90;;;;;;6063260;23;20405;-77
2022/09/14 03:04:51;;;;;;;0.60;0.60;;;16.30;99.90;;;;;;6087803;23;20022;-77
2022/09/14 03:07:18;;;;;;;0.88;0.57;;;16.30;99.90;;;;;;6064345;23;20026;-77
2022/09/14 03:09:45;;;;;;;0.60;0.60;;;16.40;99.90;;;;;;6089003;23;20028;-76
2022/09/14 03:12:11;;;;;;;0.60;0.60;;;16.40;99.90;;;;;;6088075;23;20029;-77
2022/09/14 03:14:38;;;;;;;0.55;0.50;;;16.40;99.90;;;;;;6064843;23;20026;-77
2022/09/14 03:17:05;;;;;;;0.50;0.50;;;16.40;99.90;;;;;;6087285;23;20459;-77
2022/09/14 03:19:32;;;;;;;0.73;0.70;;;16.40;99.90;;;;;;6064035;23;20132;-77
2022/09/14 03:21:59;;;;;;;0.60;0.60;;;16.40;99.90;;;;;;6064103;23;20439;-77
2022/09/14 03:24:26;;;;;;;0.68;0.65;;;16.40;99.90;;;;;;6064254;23;20057;-77
2022/09/14 03:26:52;;;;;;;0.60;0.60;;;16.40;99.90;;;;;;6088011;23;20022;-77
2022/09/14 03:29:19;;;;;;;0.70;0.70;;;16.40;99.90;;;;;;6089946;23;20030;-77
2022/09/14 03:31:46;;;;;;;0.80;0.70;;;16.40;99.90;;;;;;6063169;23;20601;-77
2022/09/14 03:34:13;;;;;;;0.75;0.65;;;16.40;99.90;;;;;;6111398;23;20054;-77
2022/09/14 03:36:39;;;;;;;0.98;0.90;;;16.30;99.90;;;;;;6063740;23;20153;-77
2022/09/14 03:39:06;;;;;;;0.95;0.80;;;16.30;99.90;;;;;;6087628;23;20018;-78
2022/09/14 03:41:33;;;;;;;0.60;0.60;;;16.30;99.90;;;;;;6087249;23;20375;-77
2022/09/14 03:44:00;;;;;;;0.80;0.80;;;16.30;99.90;;;;;;6088599;23;20029;-77
2022/09/14 03:46:26;;;;;;;1.00;0.70;;;16.40;99.90;;;;;;6087333;23;20022;-77
2022/09/14 03:48:54;;;;;;;1.13;1.00;;;16.40;99.90;;;;;;6063289;23;20117;-77
2022/09/14 03:51:20;;;;;;;1.33;1.23;;;16.30;99.90;;;;;;6087721;23;20101;-77
2022/09/14 03:53:47;;;;;;;1.00;0.95;;;16.30;99.90;;;;;;6087523;23;20018;-77
2022/09/14 03:56:16;;;;;;;1.00;0.90;;;16.30;99.90;;;;;;6064509;23;20022;-77
2022/09/14 03:58:43;;;;;;;0.90;0.85;;;16.30;99.90;;;;;;6063943;23;20026;-77
2022/09/14 04:01:13;;;;;;;1.00;0.98;;;16.30;99.90;;;;;;6087390;23;20030;-77
2022/09/14 04:03:40;;;;;;;0.80;0.80;;;16.30;99.90;;;;;;6063556;23;20029;-77
2022/09/14 04:06:07;;;;;;;1.20;1.02;;;16.30;99.90;;;;;;6087862;23;20113;-77
2022/09/14 04:08:35;;;;;;;1.40;1.30;;;16.30;99.90;;;;;;6087524;23;20057;-77
2022/09/14 04:11:18;;;;;;;1.10;1.00;;;16.30;99.90;;;;;;6064651;23;20022;-77
2022/09/14 04:13:45;;;;;;;0.90;0.90;;;16.30;99.90;;;;;;6088262;23;20707;-77
2022/09/14 04:16:12;;;;;;;1.98;0.88;;;16.30;99.90;;;;;;6087589;23;20426;-77
2022/09/14 04:18:39;;;;;;;1.60;1.23;;;16.30;99.90;;;;;;6062800;23;20375;-77
2022/09/14 04:21:07;;;;;;;1.25;1.15;;;16.20;99.90;;;;;;6088114;23;20026;-77
2022/09/14 04:23:34;;;;;;;1.42;1.30;;;16.20;99.90;;;;;;6063814;23;20367;-77
2022/09/14 04:26:18;;;;;;;1.10;1.00;;;16.20;99.90;;;;;;6087470;23;20097;-76
2022/09/14 04:28:44;;;;;;;1.17;1.08;;;16.20;99.90;;;;;;6087590;23;20343;-77
2022/09/14 04:31:11;;;;;;;1.23;1.05;;;16.20;99.90;;;;;;6087334;23;20018;-77
2022/09/14 04:33:39;;;;;;;1.80;1.27;;;16.20;99.90;;;;;;6085778;23;20391;-77
2022/09/14 04:36:11;;;;;;;1.45;1.35;;;16.20;99.90;;;;;;6063460;23;20022;-77
2022/09/14 04:38:40;;;;;;;1.50;1.30;;;16.20;99.90;;;;;;6086901;23;20076;-78
2022/09/14 04:41:08;;;;;;;1.38;1.15;;;16.10;99.90;;;;;;6088495;23;20031;-77
2022/09/14 04:43:35;;;;;;;1.50;1.30;;;16.20;99.90;;;;;;6087429;23;20455;-77
2022/09/14 04:46:03;;;;;;;1.52;1.42;;;16.20;99.90;;;;;;6087212;23;20037;-77
2022/09/14 04:48:34;;;;;;;1.35;1.15;;;16.20;99.90;;;;;;6062874;23;20030;-77
2022/09/14 04:51:06;;;;;;;2.70;1.15;;;16.20;99.90;;;;;;6085192;23;20042;-77
2022/09/14 04:53:33;;;;;;;1.40;1.25;;;16.20;99.90;;;;;;6060183;23;20030;-77
2022/09/14 04:56:01;;;;;;;1.30;1.10;;;16.10;99.90;;;;;;6085305;23;20502;-77
2022/09/14 04:58:28;;;;;;;2.10;1.50;;;16.10;99.90;;;;;;6084669;23;20416;-77
2022/09/14 05:01:00;;;;;;;3.10;2.03;;;16.10;99.90;;;;;;6063849;23;20045;-77
2022/09/14 05:03:27;;;;;;;2.83;2.53;;;16.10;99.90;;;;;;6087118;23;20036;-77
2022/09/14 05:05:59;;;;;;;2.40;2.20;;;16.00;99.90;;;;;;6087118;23;20089;-77
2022/09/14 05:08:26;;;;;;;2.13;1.85;;;15.90;99.90;;;;;;6089382;23;20033;-77
2022/09/14 05:10:56;;;;;;;2.30;1.60;;;15.90;99.90;;;;;;6090024;23;20018;-76
2022/09/14 05:13:23;;;;;;;3.00;2.20;;;15.90;99.90;;;;;;6087232;23;20026;-77
2022/09/14 05:15:50;;;;;;;2.45;1.90;;;15.90;99.90;;;;;;6087629;23;20488;-77
2022/09/14 05:18:17;;;;;;;1.95;1.77;;;15.90;99.90;;;;;;6067762;23;20080;-77
2022/09/14 05:20:44;;;;;;;1.88;1.70;;;15.90;99.90;;;;;;6066578;23;20109;-78
2022/09/14 05:23:11;;;;;;;1.92;1.50;;;15.90;99.90;;;;;;6091112;23;20355;-77
2022/09/14 05:25:37;;;;;;;1.48;1.38;;;15.80;99.90;;;;;;6090968;23;20025;-78
2022/09/14 05:28:04;;;;;;;1.95;1.70;;;15.90;99.90;;;;;;6067365;23;20017;-77
2022/09/14 05:30:31;;;;;;;2.65;1.85;;;15.90;99.90;;;;;;6065321;23;20028;-77
2022/09/14 05:32:58;;;;;;;2.85;1.80;;;15.90;99.90;;;;;;6085957;23;20348;-78
2022/09/14 05:35:25;;;;;;;1.85;1.60;;;15.90;99.90;;;;;;6085131;23;20022;-78
2022/09/14 05:37:52;;;;;;;2.15;1.65;;;15.90;99.90;;;;;;6089979;23;20162;-78
2022/09/14 05:40:19;;;;;;;1.77;1.35;;;15.90;99.90;;;;;;6090285;23;20097;-78
2022/09/14 05:42:46;;;;;;;1.20;1.10;;;15.90;99.90;;;;;;6063410;23;20091;-78
2022/09/14 05:45:12;;;;;;;1.35;1.15;;;15.90;99.90;;;;;;6062136;23;20026;-79
2022/09/14 05:47:40;;;;;;;1.77;1.25;;;15.90;99.90;;;;;;6065116;23;20033;-78
2022/09/14 05:50:07;;;;;;;2.13;1.50;;;15.90;99.90;;;;;;6090050;23;20440;-78
2022/09/14 05:52:34;;;;;;;1.25;1.10;;;15.90;99.90;;;;;;6065894;23;20025;-78
2022/09/14 05:55:01;;;;;;;1.45;1.20;;;15.90;99.90;;;;;;6090308;23;20053;-79
2022/09/14 05:57:28;;;;;;;2.13;0.90;;;15.90;99.90;;;;;;6090262;23;20030;-78
2022/09/14 05:59:55;;;;;;;1.00;0.90;;;15.90;99.90;;;;;;6115331;23;20315;-78
2022/09/14 06:02:22;;;;;;;1.20;1.10;;;15.90;99.90;;;;;;6085946;23;20028;-78
2022/09/14 06:04:49;;;;;;;1.40;1.10;;;16.00;99.90;;;;;;6085535;23;20367;-78
2022/09/14 06:07:15;;;;;;;1.45;1.25;;;15.90;99.90;;;;;;6064739;23;20478;-79
2022/09/14 06:09:44;;;;;;;1.50;1.23;;;15.90;99.90;;;;;;6116550;23;20442;-78
2022/09/14 06:12:13;;;;;;;2.40;1.27;;;15.80;99.90;;;;;;6090425;23;20345;-79
2022/09/14 06:14:40;;;;;;;0.82;0.82;;;15.80;99.90;;;;;;6068027;23;20057;-81
2022/09/14 06:17:07;;;;;;;1.27;1.10;;;15.80;99.90;;;;;;6090419;23;20021;-77
2022/09/14 06:19:34;;;;;;;0.95;0.85;;;15.80;99.90;;;;;;6089760;23;20045;-76
2022/09/14 06:22:00;;;;;;;1.02;0.80;;;15.80;99.90;;;;;;6064887;23;20028;-76
2022/09/14 06:24:27;;;;;;;1.23;0.95;;;15.80;99.90;;;;;;6086468;23;20026;-76
2022/09/14 06:26:54;;;;;;;0.88;0.80;;;15.80;99.90;;;;;;6084224;23;20346;-76
2022/09/14 06:29:21;;;;;;;1.20;0.80;;;15.90;99.90;;;;;;6086704;23;20034;-76
2022/09/14 06:31:48;;;;;;;0.65;0.65;;;15.90;99.90;;;;;;6114606;23;20146;-76
2022/09/14 06:34:14;;;;;;;0.73;0.73;;;15.90;99.90;;;;;;6089477;23;20040;-76
2022/09/14 06:36:41;;;;;;;1.27;0.90;;;15.90;99.90;;;;;;6089006;23;20048;-76
2022/09/14 06:39:08;;;;;;;1.30;0.98;;;16.00;99.90;;;;;;6088094;23;20483;-76
2022/09/14 06:41:34;;;;;;;0.70;0.70;;;16.00;99.90;;;;;;6061335;23;20034;-73
2022/09/14 06:44:01;;;;;;;0.88;0.80;;;16.00;99.90;;;;;;6086830;23;20108;-74
2022/09/14 06:46:30;;;;;;;1.23;1.08;;;15.90;99.90;;;;;;6084572;23;20021;-74
2022/09/14 06:49:07;;;;;;;1.10;0.82;;;15.90;99.90;;;;;;6113287;23;20045;-74
2022/09/14 06:51:38;;;;;;;1.33;0.80;;;15.90;99.90;;;;;;6090116;23;20057;-74
2022/09/14 06:54:05;;;;;;;1.02;0.90;;;15.90;99.90;;;;;;6066604;23;20022;-74
2022/09/14 06:56:37;;;;;;;2.10;1.00;;;15.90;99.90;;;;;;6116328;23;20029;-74
2022/09/14 06:59:05;;;;;;;0.70;0.70;;;15.80;99.90;;;;;;6090329;23;20076;-74
2022/09/14 07:01:32;;;;;;;0.88;0.68;;;15.90;99.90;;;;;;6087738;23;20022;-74
2022/09/14 07:04:00;;;;;;;0.93;0.50;;;15.90;99.90;;;;;;6061754;23;20251;-74
2022/09/14 07:06:28;;;;;;;0.65;0.63;;;16.00;99.90;;;;;;6080145;23;20018;-74
2022/09/14 07:08:55;;;;;;;0.95;0.70;;;16.00;99.90;;;;;;6082892;23;20018;-74
2022/09/14 07:11:24;;;;;;;0.88;0.75;;;16.10;99.90;;;;;;6082221;23;20355;-73
2022/09/14 07:13:53;;;;;;;1.10;0.88;;;16.20;99.90;;;;;;6083239;23;20060;-74
2022/09/14 07:16:20;;;;;;;0.68;0.60;;;16.20;99.90;;;;;;6081721;23;20335;-73
2022/09/14 07:18:47;;;;;;;0.88;0.75;;;16.30;99.90;;;;;;6082257;23;20417;-74
2022/09/14 07:21:16;;;;;;;0.73;0.60;;;16.30;99.90;;;;;;6084156;23;20132;-74
2022/09/14 07:23:44;;;;;;;0.68;0.55;;;16.40;99.90;;;;;;6083467;23;20018;-74
2022/09/14 07:26:22;;;;;;;0.68;0.60;;;16.40;99.90;;;;;;6059965;23;20144;-74
2022/09/14 07:28:51;;;;;;;0.75;0.60;;;16.40;99.90;;;;;;6084277;23;20026;-73
2022/09/14 07:31:24;;;;;;;0.98;0.50;;;16.40;99.90;;;;;;6083429;23;20070;-73
2022/09/14 07:33:53;;;;;;;0.60;0.60;;;16.50;99.90;;;;;;6058407;23;20029;-74
2022/09/14 07:36:20;;;;;;;0.73;0.60;;;16.60;99.90;;;;;;6083665;23;20060;-74
2022/09/14 07:38:47;;;;;;;0.75;0.50;;;16.70;99.90;;;;;;6083993;23;20032;-73
2022/09/14 07:41:23;;;;;;;0.40;0.40;;;16.70;99.90;;;;;;6061344;23;20026;-74
2022/09/14 07:43:51;;;;;;;0.40;0.40;;;16.70;99.90;;;;;;6059829;23;20018;-74
2022/09/14 07:46:18;;;;;;;0.50;0.47;;;16.70;99.90;;;;;;6082642;23;20026;-73
2022/09/14 07:48:45;;;;;;;0.65;0.45;;;16.70;99.90;;;;;;6059171;23;20022;-73
2022/09/14 07:51:12;;;;;;;0.98;0.60;;;16.70;99.90;;;;;;6110826;23;20030;-72
2022/09/14 07:53:41;;;;;;;0.70;0.65;;;16.70;99.90;;;;;;6108849;23;20044;-73
2022/09/14 07:56:09;;;;;;;0.88;0.80;;;16.70;99.90;;;;;;6084697;23;20022;-73
2022/09/14 07:58:36;;;;;;;0.85;0.73;;;16.60;99.90;;;;;;6082903;23;20060;-72
2022/09/14 08:01:10;;;;;;;0.80;0.52;;;16.60;99.90;;;;;;6109073;23;20037;-72
2022/09/14 08:03:42;;;;;;;1.00;0.70;;;16.60;99.90;;;;;;6084076;23;20190;-71
2022/09/14 08:06:17;;;;;;;1.15;0.90;;;16.60;99.90;;;;;;6109840;23;20109;-72
2022/09/14 08:08:45;;;;;;;1.38;0.75;;;16.70;99.90;;;;;;6059528;23;20028;-73
2022/09/14 08:11:14;;;;;;;0.60;0.60;;;16.80;99.90;;;;;;6083306;23;20434;-74
2022/09/14 08:13:43;;;;;;;1.20;0.85;;;16.90;99.90;;;;;;6083373;23;20417;-74
2022/09/14 08:16:10;;;;;;;0.52;0.50;;;17.00;99.90;;;;;;6083221;23;20026;-74
2022/09/14 08:18:37;;;;;;;0.60;0.60;;;17.10;99.90;;;;;;6082189;23;20387;-73
2022/09/14 08:21:09;;;;;;;0.52;0.50;;;17.20;99.90;;;;;;6109397;23;20026;-74
2022/09/14 08:23:36;;;;;;;1.10;0.90;;;17.30;99.90;;;;;;6083273;23;20471;-73
2022/09/14 08:26:08;;;;;;;0.68;0.60;;;17.30;99.90;;;;;;6083327;23;20030;-74
2022/09/14 08:28:35;;;;;;;1.00;0.60;;;17.30;99.90;;;;;;6108027;23;20311;-74
2022/09/14 08:31:07;;;;;;;0.88;0.77;;;17.40;99.90;;;;;;6082832;23;20065;-73
2022/09/14 08:33:35;;;;;;;1.15;0.90;;;17.40;99.90;;;;;;6108121;23;20101;-73
2022/09/14 08:36:02;;;;;;;1.23;0.80;;;17.40;99.90;;;;;;6109210;23;20032;-74
2022/09/14 08:38:29;;;;;;;1.35;1.05;;;17.50;99.90;;;;;;6083097;23;20026;-73
2022/09/14 08:40:57;;;;;;;0.90;0.77;;;17.50;99.90;;;;;;6082972;23;20026;-74
2022/09/14 08:43:24;;;;;;;1.13;0.80;;;17.70;99.90;;;;;;6108622;23;20045;-74
2022/09/14 08:45:53;;;;;;;2.05;0.88;;;17.80;99.90;;;;;;6082754;23;20815;-74
2022/09/14 08:48:30;;;;;;;1.10;0.80;;;17.80;99.90;;;;;;6083185;23;20041;-74
2022/09/14 08:50:57;;;;;;;0.85;0.70;;;17.90;99.90;;;;;;6082457;23;20217;-74
2022/09/14 08:53:23;;;;;;;0.75;0.60;;;17.90;99.90;;;;;;6083185;23;20041;-74
2022/09/14 08:55:59;;;;;;;1.30;1.02;;;18.10;99.90;;;;;;6083040;23;20025;-74
2022/09/14 08:58:56;;;;;;;0.50;0.50;;;18.20;99.90;;;;;;6083489;23;20024;-74
2022/09/14 09:01:27;;;;;;;0.50;0.50;;;18.40;99.90;;;;;;6059066;23;20385;-73
2022/09/14 09:04:16;;;;;;;0.68;0.60;;;18.40;99.90;;;;;;6082820;23;20105;-74
2022/09/14 09:07:07;;;;;;;0.50;0.50;;;18.40;99.90;;;;;;6108330;23;20450;-74
2022/09/14 09:09:47;;;;;;;1.45;0.50;;;18.50;99.90;;;;;;6082276;23;20026;-74
2022/09/14 09:12:34;;;;;;;0.50;0.50;;;18.50;99.90;;;;;;6083078;23;20073;-74
2022/09/14 09:15:13;;;;;;;1.70;0.57;;;18.50;99.90;;;;;;6083884;23;20029;-74
2022/09/14 09:17:43;;;;;;;0.35;0.32;;;18.60;99.90;;;;;;6058131;23;20022;-74
2022/09/14 09:20:22;;;;;;;1.00;0.70;;;18.70;99.90;;;;;;6081974;23;20026;-74
2022/09/14 09:23:14;;;;;;;1.38;0.70;;;18.80;99.90;;;;;;6082159;23;20056;-74
2022/09/14 09:26:20;;;;;;;0.60;0.60;;;18.90;99.90;;;;;;6086054;23;20021;-74
2022/09/14 09:28:52;;;;;;;1.83;1.10;;;18.90;99.90;;;;;;6082025;23;20096;-74
2022/09/14 09:31:30;;;;;;;1.42;0.70;;;18.80;99.90;;;;;;6058283;23;20535;-72
2022/09/14 09:33:57;;;;;;;1.70;0.95;;;18.70;99.90;;;;;;6057476;23;20104;-72
2022/09/14 09:36:24;;;;;;;0.93;0.68;;;18.70;99.90;;;;;;6082068;23;20129;-80
2022/09/14 09:38:50;;;;;;;0.55;0.55;;;18.70;99.90;;;;;;6058663;23;20500;-73
2022/09/14 09:41:22;;;;;;;1.67;0.98;;;18.60;99.90;;;;;;6109358;23;20030;-73
2022/09/14 09:44:00;;;;;;;2.40;1.25;;;18.60;99.90;;;;;;6082402;23;20029;-74
2022/09/14 09:46:34;;;;;;;1.05;0.60;;;18.60;99.90;;;;;;6056697;23;20493;-73
2022/09/14 09:49:02;;;;;;;0.85;0.63;;;18.70;99.90;;;;;;6057204;23;20076;-74
2022/09/14 09:51:30;;;;;;;1.13;0.60;;;18.70;99.90;;;;;;6081078;23;20399;-73
2022/09/14 09:54:12;;;;;;;1.58;0.82;;;18.70;99.90;;;;;;6081720;23;20032;-72
2022/09/14 09:56:52;;;;;;;1.13;0.50;;;18.60;99.90;;;;;;6107846;23;20318;-75
2022/09/14 09:59:22;;;;;;;1.83;0.95;;;18.60;99.90;;;;;;6057666;23;20338;-72
2022/09/14 10:01:49;;;;;;;2.60;0.85;;;18.60;99.90;;;;;;6081632;23;20026;-71
2022/09/14 10:04:18;;;;;;;1.33;0.82;;;18.60;99.90;;;;;;6082523;23;20077;-72
2022/09/14 10:06:46;;;;;;;1.35;0.55;;;18.70;99.90;;;;;;6082598;23;20032;-71
2022/09/14 10:09:20;;;;;;;1.73;0.70;;;18.70;99.90;;;;;;6082791;23;20029;-72
2022/09/14 10:11:55;;;;;;;1.33;0.80;;;18.60;99.90;;;;;;6082599;23;20032;-72
2022/09/14 10:14:27;;;;;;;1.48;0.70;;;18.70;99.90;;;;;;6083353;23;20437;-72
2022/09/14 10:17:27;;;;;;;0.63;0.47;;;18.70;99.90;;;;;;6082182;23;20033;-75
2022/09/14 10:19:54;;;;;;;2.95;0.73;;;18.70;99.90;;;;;;6084835;23;20105;-73
2022/09/14 10:22:33;;;;;;;0.75;0.70;;;18.80;99.90;;;;;;6082016;23;20037;-72
2022/09/14 10:25:23;;;;;;;0.70;0.60;;;18.80;99.90;;;;;;6081343;23;20056;-72
2022/09/14 10:27:53;;;;;;;0.65;0.60;;;18.90;99.90;;;;;;6082909;23;20028;-73
2022/09/14 10:30:24;;;;;;;1.58;0.70;;;18.80;99.90;;;;;;6107967;23;20029;-72
2022/09/14 10:32:59;;;;;;;0.88;0.80;;;18.90;99.90;;;;;;6059331;23;20370;-72
2022/09/14 10:35:42;;;;;;;0.75;0.50;;;19.00;99.90;;;;;;6081313;23;20629;-72
2022/09/14 10:38:22;;;;;;;0.50;0.40;;;19.00;99.90;;;;;;6083000;23;20026;-75
2022/09/14 10:40:52;;;;;;;1.85;0.55;;;19.00;99.90;;;;;;6082709;23;20033;-72
2022/09/14 10:43:47;;;;;;;0.43;0.40;;;18.90;99.90;;;;;;6059412;23;20028;-72
2022/09/14 10:46:24;;;;;;;0.73;0.60;;;18.80;99.90;;;;;;6082130;23;20036;-73
2022/09/14 10:49:13;;;;;;;1.27;0.90;;;18.80;99.90;;;;;;6082076;23;20030;-73
2022/09/14 10:51:43;;;;;;;1.35;0.70;;;18.80;99.90;;;;;;6086537;23;20032;-73
2022/09/14 10:54:15;;;;;;;2.35;0.82;;;18.80;99.90;;;;;;6084540;23;20040;-73
2022/09/14 10:56:50;;;;;;;0.82;0.80;;;18.80;99.90;;;;;;6060916;23;20045;-73
2022/09/14 10:59:32;;;;;;;0.60;0.60;;;18.90;99.90;;;;;;6110845;23;20283;-75
2022/09/14 11:02:17;;;;;;;1.55;0.70;;;18.90;99.90;;;;;;6108880;23;20034;-72
2022/09/14 11:05:08;;;;;;;1.63;0.63;;;18.90;99.90;;;;;;6084184;23;20100;-75
2022/09/14 11:07:43;;;;;;;0.85;0.70;;;19.00;99.90;;;;;;6083621;23;20026;-75
2022/09/14 11:10:25;;;;;;;0.85;0.65;;;19.20;99.90;;;;;;6084291;23;20169;-74
2022/09/14 11:13:19;;;;;;;1.35;0.80;;;19.30;99.90;;;;;;6110211;23;20022;-79
2022/09/14 11:15:53;;;;;;;1.13;0.75;;;19.50;99.90;;;;;;6082872;23;20380;-74
2022/09/14 11:18:38;;;;;;;0.90;0.80;;;19.70;99.90;;;;;;6108565;23;20025;-74
2022/09/14 11:21:05;;;;;;;1.35;0.88;;;20.00;99.90;;;;;;6109428;23;20025;-74
2022/09/14 11:23:40;;;;;;;1.08;0.70;;;20.20;99.90;;;;;;6108731;23;20415;-74
2022/09/14 11:26:22;;;;;;;1.00;0.73;;;20.50;99.90;;;;;;6083495;23;20113;-74
2022/09/14 11:29:07;;;;;;;1.27;1.02;;;20.80;99.90;;;;;;6083874;23;20049;-75
2022/09/14 11:31:44;;;;;;;1.08;0.70;;;21.20;99.90;;;;;;6083852;23;20048;-74
2022/09/14 11:35:24;;;;;;;1.08;0.70;;;21.60;99.90;;;;;;6089233;23;20041;-74
2022/09/14 11:37:59;;;;;;;0.90;0.60;;;21.80;99.90;;;;;;6029828;23;20022;-75
2022/09/14 11:40:45;;;;;;;1.15;0.70;;;21.80;99.90;;;;;;6082640;23;20060;-74
2022/09/14 11:43:21;;;;;;;1.38;0.77;;;22.20;99.90;;;;;;6083544;23;20033;-75
2022/09/14 11:45:54;;;;;;;0.75;0.68;;;22.50;99.90;;;;;;6083103;23;20048;-75
2022/09/14 11:48:29;;;;;;;0.60;0.60;;;22.50;99.90;;;;;;6083928;23;20038;-75
2022/09/14 11:51:14;;;;;;;1.48;0.73;;;22.20;99.90;;;;;;6087638;23;20096;-75
2022/09/14 11:53:41;;;;;;;0.68;0.50;;;21.90;99.90;;;;;;6083716;23;20109;-75
2022/09/14 11:56:25;;;;;;;1.02;0.80;;;21.90;99.90;;;;;;6084545;23;20327;-75
2022/09/14 11:58:56;;;;;;;1.10;0.57;;;22.10;99.90;;;;;;6109353;23;20108;-74
2022/09/14 12:01:30;;;;;;;0.73;0.60;;;22.60;99.90;;;;;;6083236;23;20061;-74
2022/09/14 12:04:05;;;;;;;0.50;0.50;;;23.10;99.90;;;;;;6108652;23;20028;-74
2022/09/14 12:06:35;;;;;;;1.10;0.60;;;23.50;99.90;;;;;;6060491;23;20042;-74
2022/09/14 12:09:19;;;;;;;0.50;0.50;;;23.80;99.90;;;;;;6088304;23;20097;-74
2022/09/14 12:11:53;;;;;;;0.50;0.50;;;23.80;99.90;;;;;;6086908;23;20104;-74
2022/09/14 12:14:23;;;;;;;1.45;0.60;;;23.60;99.90;;;;;;6087708;23;20409;-74
2022/09/14 12:17:21;;;;;;;1.30;0.85;;;23.50;99.90;;;;;;6091092;23;20025;-75
2022/09/14 12:20:27;;;;;;;1.08;0.80;;;23.60;99.90;;;;;;6116878;23;20029;-75
2022/09/14 12:23:32;;;;;;;0.75;0.63;;;24.40;99.90;;;;;;6090644;23;20021;-74
2022/09/14 12:26:03;;;;;;;0.88;0.50;;;24.50;99.90;;;;;;6109882;23;20493;-74
2022/09/14 12:28:36;;;;;;;0.50;0.50;;;24.40;99.90;;;;;;6089139;23;20109;-75
2022/09/14 12:31:03;;;;;;;0.95;0.60;;;24.50;99.90;;;;;;6117447;23;20100;-75
2022/09/14 12:33:30;;;;;;;0.50;0.40;;;25.00;99.90;;;;;;6116457;23;20333;-75
2022/09/14 12:36:06;;;;;;;0.50;0.50;;;25.70;99.90;;;;;;6089740;23;20044;-75
2022/09/14 12:38:36;;;;;;;1.10;0.50;;;26.20;99.90;;;;;;6065443;23;20029;-75
2022/09/14 12:41:08;;;;;;;1.10;0.60;;;26.80;99.90;;;;;;6117095;23;20114;-75
2022/09/14 12:43:35;;;;;;;0.82;0.43;;;27.50;99.90;;;;;;6116254;23;20472;-75
2022/09/14 12:46:04;;;;;;;0.82;0.45;;;27.80;99.90;;;;;;6117002;23;20029;-75
2022/09/14 12:48:46;;;;;;;0.50;0.50;;;27.70;99.90;;;;;;6088474;23;20306;-75
2022/09/14 12:51:25;;;;;;;1.20;0.50;;;27.30;99.90;;;;;;6112248;23;20029;-75
2022/09/14 12:54:00;;;;;;;0.43;0.30;;;27.40;99.90;;;;;;6088294;23;20025;-74
2022/09/14 12:56:39;;;;;;;0.57;0.50;;;27.00;99.90;;;;;;6116411;23;20096;-74
2022/09/14 12:59:17;;;;;;;0.57;0.40;;;26.50;99.90;;;;;;6117246;23;20026;-74
2022/09/14 13:02:16;;;;;;;0.73;0.50;;;26.00;99.90;;;;;;6089694;23;20202;-74
2022/09/14 13:04:44;;;;;;;0.65;0.50;;;25.50;99.90;;;;;;6088891;23;20101;-74
2022/09/14 13:07:15;;;;;;;0.63;0.43;;;24.80;99.90;;;;;;6083413;23;20018;-75
2022/09/14 13:10:00;;;;;;;0.45;0.40;;;24.20;99.90;;;;;;6082881;23;20359;-74
2022/09/14 13:12:42;;;;;;;0.60;0.50;;;23.90;99.90;;;;;;6108794;23;20054;-75
2022/09/14 13:15:22;;;;;;;0.98;0.50;;;23.70;99.90;;;;;;6081983;23;20037;-75